Time;durP1;ratioP1;P1;durP2;ratioP2;P2;SDS_P1;SDS_P2;PMS_P1;PMS_P2;Temp;Humidity;BMP_temperature;BMP_pressure;BME280_temperature;BME280_humidity;BME280_pressure;Samples;Min_cycle;Max_cycle;Signal;HPM_P1;HPM_P2
2022/11/16 00:02:19;;;;;;;;;;;;;;;19.79;44.66;94428.03;10494909;28;2962;-49
2022/11/16 00:07:29;;;;;;;;;;;;;;;19.76;44.66;94407.63;10497657;28;2908;-47
2022/11/16 00:12:37;;;;;;;;;;;;;;;19.76;44.47;94395.28;10506663;28;3072;-51
2022/11/16 00:17:37;;;;;;;;;;;;;;;19.72;44.47;94381.13;10509303;28;3012;-49
2022/11/16 00:22:37;;;;;;;;;;;;;;;19.72;44.59;94369.88;10513265;28;3093;-52
2022/11/16 00:27:38;;;;;;;;;;;;;;;19.72;44.50;94370.63;10509667;28;3028;-53
2022/11/16 00:32:38;;;;;;;;;;;;;;;19.69;44.31;94387.00;10503214;28;2977;-54
2022/11/16 00:37:38;;;;;;;;;;;;;;;19.70;44.49;94387.81;10508335;28;3088;-49
2022/11/16 00:42:43;;;;;;;;;;;;;;;19.66;44.47;94397.38;10510943;28;2939;-51
2022/11/16 00:47:47;;;;;;;;;;;;;;;19.67;44.31;94399.69;10512493;28;3053;-51
2022/11/16 00:52:47;;;;;;;;;;;;;;;19.67;44.10;94401.53;10513412;28;2996;-47
2022/11/16 00:57:48;;;;;;;;;;;;;;;19.64;44.07;94399.50;10516894;28;3420;-50
2022/11/16 01:02:49;;;;;;;;;;;;;;;19.63;44.12;94405.84;10504480;28;2943;-51
2022/11/16 01:07:49;;;;;;;;;;;;;;;19.64;43.95;94402.16;10512359;28;3014;-47
2022/11/16 01:12:49;;;;;;;;;;;;;;;19.61;44.03;94400.09;10505825;28;2971;-48
2022/11/16 01:17:53;;;;;;;;;;;;;;;19.59;44.08;94394.38;10518701;28;3033;-52
2022/11/16 01:22:53;;;;;;;;;;;;;;;19.58;44.00;94384.94;10512258;28;3072;-51
2022/11/16 01:27:53;;;;;;;;;;;;;;;19.55;44.09;94380.28;10505685;28;3040;-51
2022/11/16 01:32:53;;;;;;;;;;;;;;;19.56;43.95;94355.56;10506357;28;2744;-48
2022/11/16 01:37:54;;;;;;;;;;;;;;;19.53;43.94;94351.66;10518144;28;2768;-49
2022/11/16 01:42:54;;;;;;;;;;;;;;;19.52;43.88;94354.56;10503948;28;2353;-51
2022/11/16 01:47:54;;;;;;;;;;;;;;;19.51;44.02;94359.06;10508565;28;2665;-50
2022/11/16 01:52:56;;;;;;;;;;;;;;;19.53;43.75;94349.03;10515036;28;2670;-51
2022/11/16 01:57:56;;;;;;;;;;;;;;;19.51;43.82;94342.53;10518323;28;2725;-48
2022/11/16 02:02:56;;;;;;;;;;;;;;;19.49;44.04;94351.47;10504713;28;2784;-47
2022/11/16 02:13:19;;;;;;;;;;;;;;;19.45;43.76;94358.41;10503718;28;2701;-49
2022/11/16 02:18:31;;;;;;;;;;;;;;;19.44;43.94;94342.94;10505078;28;2763;-51
2022/11/16 02:23:52;;;;;;;;;;;;;;;19.44;43.78;94353.44;10505539;28;2808;-51
2022/11/16 02:29:01;;;;;;;;;;;;;;;19.43;43.79;94336.16;10517970;28;2761;-49
2022/11/16 02:34:02;;;;;;;;;;;;;;;19.42;43.69;94351.13;10508912;28;2735;-51
2022/11/16 02:39:04;;;;;;;;;;;;;;;19.43;43.68;94342.16;10495366;28;2770;-50
2022/11/16 02:44:07;;;;;;;;;;;;;;;19.42;43.74;94334.59;10511468;28;2731;-49
2022/11/16 02:49:12;;;;;;;;;;;;;;;19.38;43.83;94342.28;10505301;28;2596;-48
2022/11/16 02:54:16;;;;;;;;;;;;;;;19.42;43.78;94316.19;10514165;28;2688;-51
2022/11/16 02:59:17;;;;;;;;;;;;;;;19.36;43.91;94323.44;10511288;28;2748;-51
2022/11/16 03:04:18;;;;;;;;;;;;;;;19.37;43.57;94327.59;10518319;28;2736;-49
2022/11/16 03:09:28;;;;;;;;;;;;;;;19.34;43.83;94322.94;10502252;28;2424;-48
2022/11/16 03:14:29;;;;;;;;;;;;;;;19.35;43.76;94361.28;10510604;28;2482;-48
2022/11/16 03:19:36;;;;;;;;;;;;;;;19.35;43.68;94334.25;10497838;28;2731;-51
2022/11/16 03:24:37;;;;;;;;;;;;;;;19.31;43.72;94330.59;10508636;28;2738;-47
2022/11/16 03:29:40;;;;;;;;;;;;;;;19.33;43.49;94325.84;10504972;28;2728;-48
2022/11/16 03:34:41;;;;;;;;;;;;;;;19.31;43.61;94355.03;10501099;28;2899;-50
2022/11/16 03:39:42;;;;;;;;;;;;;;;19.31;43.62;94339.25;10508018;28;2729;-46
2022/11/16 03:44:42;;;;;;;;;;;;;;;19.29;43.65;94346.66;10510160;28;2722;-53
2022/11/16 03:49:43;;;;;;;;;;;;;;;19.27;43.57;94369.06;10503168;28;2730;-50
2022/11/16 03:54:43;;;;;;;;;;;;;;;19.25;43.66;94392.22;10499990;28;2463;-53
2022/11/16 03:59:44;;;;;;;;;;;;;;;19.28;43.49;94389.00;10502116;28;2779;-52
2022/11/16 04:26:03;;;;;;;;;;;;;;;19.21;43.43;94415.69;10504797;28;2815;-49
2022/11/16 04:47:08;;;;;;;;;;;;;;;19.16;43.47;94446.56;10510469;28;2771;-50
2022/11/16 04:52:08;;;;;;;;;;;;;;;19.19;43.40;94448.56;10516471;28;2718;-49
2022/11/16 04:57:09;;;;;;;;;;;;;;;19.18;43.41;94442.56;10505587;28;2681;-49
2022/11/16 05:02:09;;;;;;;;;;;;;;;19.19;43.42;94444.09;10515593;28;2787;-50
2022/11/16 05:07:10;;;;;;;;;;;;;;;19.24;43.21;94435.34;10505620;28;2709;-49
2022/11/16 05:12:18;;;;;;;;;;;;;;;19.34;43.15;94438.56;10508597;28;2753;-48
2022/11/16 05:17:18;;;;;;;;;;;;;;;19.45;43.08;94445.13;10500348;28;2404;-52
2022/11/16 05:22:18;;;;;;;;;;;;;;;19.59;42.88;94454.81;10508760;28;2752;-46
2022/11/16 05:27:19;;;;;;;;;;;;;;;19.66;42.63;94449.94;10509261;28;2452;-51
2022/11/16 05:32:19;;;;;;;;;;;;;;;19.76;42.43;94455.75;10514709;28;2717;-51
2022/11/16 05:37:25;;;;;;;;;;;;;;;19.83;42.42;94465.81;10504995;28;2725;-47
2022/11/16 05:42:26;;;;;;;;;;;;;;;19.90;42.33;94463.56;10513447;28;2737;-52
2022/11/16 05:47:26;;;;;;;;;;;;;;;19.93;42.39;94462.94;10513215;28;2724;-48
2022/11/16 05:52:26;;;;;;;;;;;;;;;19.94;42.39;94457.41;10514738;28;2769;-51
2022/11/16 05:57:27;;;;;;;;;;;;;;;19.99;42.08;94461.78;10503077;28;2520;-46
2022/11/16 06:02:27;;;;;;;;;;;;;;;20.00;41.89;94461.47;10512815;28;2658;-51
2022/11/16 06:07:27;;;;;;;;;;;;;;;20.05;41.52;94461.31;10507956;28;2430;-53
2022/11/16 06:12:28;;;;;;;;;;;;;;;20.10;41.77;94465.69;10516434;28;2377;-53
2022/11/16 06:17:28;;;;;;;;;;;;;;;20.08;41.02;94462.59;10518613;28;2708;-47
2022/11/16 06:22:28;;;;;;;;;;;;;;;20.14;41.25;94461.38;10501765;28;2721;-52
2022/11/16 06:27:28;;;;;;;;;;;;;;;20.17;41.63;94461.53;10512514;28;2701;-50
2022/11/16 06:32:29;;;;;;;;;;;;;;;20.20;41.22;94458.34;10502940;28;2823;-50
2022/11/16 06:37:29;;;;;;;;;;;;;;;20.27;41.28;94460.56;10519350;28;2468;-51
2022/11/16 06:42:29;;;;;;;;;;;;;;;20.33;41.76;94461.97;10510291;28;2722;-48
2022/11/16 06:47:29;;;;;;;;;;;;;;;20.37;41.70;94462.94;10500287;28;2744;-52
2022/11/16 06:52:30;;;;;;;;;;;;;;;20.38;41.24;94461.84;10500309;28;2756;-47
2022/11/16 06:57:31;;;;;;;;;;;;;;;20.39;41.79;94452.88;10517473;28;2745;-49
2022/11/16 07:02:31;;;;;;;;;;;;;;;20.41;41.54;94455.97;10508870;28;2743;-49
2022/11/16 07:07:31;;;;;;;;;;;;;;;20.43;41.71;94451.19;10509759;28;2693;-49
2022/11/16 07:12:32;;;;;;;;;;;;;;;20.45;41.77;94458.78;10513437;28;3094;-49
2022/11/16 07:17:32;;;;;;;;;;;;;;;20.50;41.47;94456.03;10506227;28;2722;-49
2022/11/16 07:22:32;;;;;;;;;;;;;;;20.50;41.32;94456.03;10496048;28;2740;-51
2022/11/16 07:27:33;;;;;;;;;;;;;;;20.49;41.34;94446.56;10499211;28;2679;-51
2022/11/16 07:49:27;;;;;;;;;;;;;;;20.61;41.56;94463.34;10500392;28;2509;-49
2022/11/16 07:54:27;;;;;;;;;;;;;;;20.60;41.23;94472.31;10500739;28;2441;-53
2022/11/16 07:59:28;;;;;;;;;;;;;;;20.63;40.54;94469.06;10500630;28;2418;-48
2022/11/16 08:04:32;;;;;;;;;;;;;;;20.68;40.65;94468.16;10504546;28;3006;-51
2022/11/16 08:09:33;;;;;;;;;;;;;;;20.63;40.68;94470.94;10499466;28;2708;-48
2022/11/16 08:14:33;;;;;;;;;;;;;;;20.66;41.66;94473.75;10491880;28;2677;-50
2022/11/16 08:19:35;;;;;;;;;;;;;;;20.66;41.64;94473.75;10509294;28;2030;-48
2022/11/16 08:24:35;;;;;;;;;;;;;;;20.68;41.57;94474.22;10489258;28;2193;-49
2022/11/16 08:29:36;;;;;;;;;;;;;;;20.67;41.79;94477.91;10503906;28;2087;-51
2022/11/16 08:34:36;;;;;;;;;;;;;;;20.65;41.72;94477.44;10507029;28;2055;-49
2022/11/16 08:39:36;;;;;;;;;;;;;;;20.64;41.73;94477.75;10510403;28;2145;-51
2022/11/16 08:44:37;;;;;;;;;;;;;;;20.60;41.78;94484.72;10502273;28;2289;-50
2022/11/16 08:49:37;;;;;;;;;;;;;;;20.57;41.63;94483.44;10502835;28;2125;-47
2022/11/16 08:54:37;;;;;;;;;;;;;;;20.54;41.50;94481.44;10510431;28;2152;-48
2022/11/16 08:59:37;;;;;;;;;;;;;;;20.50;41.60;94485.75;10505250;28;2027;-49
2022/11/16 09:04:38;;;;;;;;;;;;;;;20.48;41.86;94487.91;10515050;28;2065;-47
2022/11/16 09:09:38;;;;;;;;;;;;;;;20.43;42.07;94487.25;10516571;28;2158;-48
2022/11/16 09:14:38;;;;;;;;;;;;;;;20.43;42.06;94495.16;10512742;28;2058;-49
2022/11/16 09:19:39;;;;;;;;;;;;;;;20.41;41.92;94498.09;10530754;27;2008;-49
2022/11/16 09:24:39;;;;;;;;;;;;;;;20.41;41.68;94498.09;10512597;28;1951;-48
2022/11/16 09:29:40;;;;;;;;;;;;;;;20.38;41.74;94505.81;10511230;28;1986;-51
2022/11/16 09:34:40;;;;;;;;;;;;;;;20.33;41.76;94501.47;10504029;28;2017;-50
2022/11/16 09:39:41;;;;;;;;;;;;;;;20.33;41.77;94506.72;10507963;28;2018;-47
2022/11/16 09:44:47;;;;;;;;;;;;;;;20.29;42.01;94508.41;10509641;28;2204;-50
2022/11/16 09:49:50;;;;;;;;;;;;;;;20.25;41.69;94515.34;10503905;28;2055;-51
2022/11/16 09:54:50;;;;;;;;;;;;;;;20.31;41.90;94514.13;10505240;28;1975;-49
2022/11/16 09:59:52;;;;;;;;;;;;;;;20.25;41.83;94520.59;10507458;28;2023;-49
2022/11/16 10:04:52;;;;;;;;;;;;;;;20.15;42.07;94518.19;10505128;28;1939;-47
2022/11/16 10:09:53;;;;;;;;;;;;;;;20.12;42.46;94516.16;10508007;28;1924;-51
2022/11/16 10:15:12;;;;;;;;;;;;;;;20.07;42.59;94511.78;10497219;28;1994;-50
2022/11/16 10:20:35;;;;;;;;;;;;;;;20.07;42.29;94509.16;10506972;28;1967;-51
2022/11/16 10:25:45;;;;;;;;;;;;;;;20.06;42.58;94506.81;10508878;28;2101;-51
2022/11/16 10:31:01;;;;;;;;;;;;;;;20.02;42.47;94505.88;10507273;28;2036;-49
2022/11/16 10:36:08;;;;;;;;;;;;;;;20.00;42.50;94508.03;10497271;28;1956;-48
2022/11/16 10:41:23;;;;;;;;;;;;;;;19.94;42.51;94502.13;10501330;28;1892;-49
2022/11/16 10:46:34;;;;;;;;;;;;;;;19.92;42.74;94503.47;10506866;28;1959;-50
2022/11/16 10:51:35;;;;;;;;;;;;;;;19.90;42.61;94500.38;10509617;28;2070;-51
2022/11/16 10:56:36;;;;;;;;;;;;;;;19.87;42.62;94503.59;10509978;28;2101;-48
2022/11/16 11:01:37;;;;;;;;;;;;;;;19.86;42.88;94502.03;10509726;28;2046;-51
2022/11/16 11:06:37;;;;;;;;;;;;;;;19.86;42.66;94491.53;10504329;28;1928;-52
2022/11/16 11:17:01;;;;;;;;;;;;;;;19.81;42.63;94481.13;10505069;28;2085;-51
2022/11/16 11:22:12;;;;;;;;;;;;;;;19.79;42.83;94480.63;10505049;28;1954;-52
2022/11/16 11:27:12;;;;;;;;;;;;;;;19.79;42.67;94480.63;10508570;28;2105;-52
2022/11/16 11:32:13;;;;;;;;;;;;;;;19.78;42.52;94479.88;10502680;28;1970;-51
2022/11/16 11:37:14;;;;;;;;;;;;;;;19.75;42.69;94485.72;10494518;28;1987;-53
2022/11/16 11:42:15;;;;;;;;;;;;;;;19.77;42.75;94483.56;10509583;28;1999;-48
2022/11/16 11:47:33;;;;;;;;;;;;;;;19.72;42.71;94485.56;10499192;28;1952;-50
2022/11/16 11:52:38;;;;;;;;;;;;;;;19.68;42.81;94490.59;10499222;28;1943;-54
2022/11/16 11:57:39;;;;;;;;;;;;;;;19.71;42.80;94481.34;10505927;28;2040;-52
2022/11/16 12:03:03;;;;;;;;;;;;;;;19.67;43.05;94490.91;10503542;28;1932;-49
2022/11/16 12:08:13;;;;;;;;;;;;;;;19.68;42.79;94485.34;10531312;27;1919;-49
2022/11/16 12:13:19;;;;;;;;;;;;;;;19.67;42.83;94483.03;10501525;28;1966;-51
2022/11/16 12:18:19;;;;;;;;;;;;;;;19.63;42.88;94487.31;10501229;28;1975;-48
2022/11/16 12:23:31;;;;;;;;;;;;;;;19.61;42.95;94478.97;10505955;28;1984;-49
2022/11/16 12:28:50;;;;;;;;;;;;;;;19.61;43.31;94476.31;10496936;28;2022;-50
2022/11/16 12:34:09;;;;;;;;;;;;;;;19.58;43.07;94469.81;10498640;28;2299;-52
2022/11/16 12:39:23;;;;;;;;;;;;;;;19.59;43.19;94465.34;10509138;28;2242;-52
2022/11/16 12:44:29;;;;;;;;;;;;;;;19.58;43.24;94471.69;10497989;28;2040;-51
2022/11/16 12:49:36;;;;;;;;;;;;;;;19.57;43.13;94468.28;10507796;28;2264;-47
2022/11/16 12:54:37;;;;;;;;;;;;;;;19.57;43.10;94464.84;10507927;28;1995;-50
2022/11/16 12:59:49;;;;;;;;;;;;;;;19.55;43.11;94459.91;10501209;28;1958;-54
2022/11/16 13:04:59;;;;;;;;;;;;;;;19.56;43.11;94455.44;10499839;28;1935;-52
2022/11/16 13:10:02;;;;;;;;;;;;;;;19.58;43.08;94446.16;10502826;28;1872;-54
2022/11/16 13:15:03;;;;;;;;;;;;;;;19.60;43.39;94441.38;10501149;28;1928;-51
2022/11/16 13:20:23;;;;;;;;;;;;;;;19.80;43.10;94445.41;10500716;28;2082;-49
2022/11/16 13:25:26;;;;;;;;;;;;;;;19.87;42.85;94454.41;10513772;28;1990;-51
2022/11/16 13:30:40;;;;;;;;;;;;;;;19.77;43.28;94448.59;10501523;28;1987;-52
2022/11/16 13:35:40;;;;;;;;;;;;;;;19.82;43.30;94448.50;10506039;28;2104;-48
2022/11/16 13:40:40;;;;;;;;;;;;;;;19.80;43.73;94446.19;10518240;28;1920;-52
2022/11/16 13:45:42;;;;;;;;;;;;;;;19.75;43.63;94441.03;10515494;28;1944;-53
2022/11/16 13:50:46;;;;;;;;;;;;;;;19.79;43.58;94435.94;10509465;28;1931;-52
2022/11/16 13:55:46;;;;;;;;;;;;;;;19.78;44.00;94431.78;10510992;28;2334;-50
2022/11/16 14:00:57;;;;;;;;;;;;;;;19.73;44.16;94437.91;10519829;28;1940;-51
2022/11/16 14:05:57;;;;;;;;;;;;;;;19.70;45.44;94443.00;10495525;28;1947;-53
2022/11/16 14:10:58;;;;;;;;;;;;;;;19.65;46.01;94433.38;10513389;28;2002;-51
2022/11/16 14:16:18;;;;;;;;;;;;;;;19.67;46.15;94422.56;10522996;28;1977;-53
2022/11/16 14:21:18;;;;;;;;;;;;;;;19.64;46.45;94420.53;10512817;28;1995;-50
2022/11/16 14:26:22;;;;;;;;;;;;;;;19.64;46.48;94425.81;10513193;28;1913;-50
2022/11/16 14:31:26;;;;;;;;;;;;;;;19.63;46.49;94417.13;10509131;28;1951;-52
2022/11/16 14:36:40;;;;;;;;;;;;;;;19.67;46.56;94417.31;10511027;28;2070;-51
2022/11/16 14:41:45;;;;;;;;;;;;;;;19.76;46.34;94412.88;10506260;28;1963;-50
2022/11/16 14:46:45;;;;;;;;;;;;;;;19.86;46.12;94423.16;10515999;28;1955;-52
2022/11/16 14:51:50;;;;;;;;;;;;;;;20.00;45.73;94423.84;10507049;28;2016;-50
2022/11/16 14:57:13;;;;;;;;;;;;;;;20.07;45.58;94411.81;10516434;28;2003;-49
2022/11/16 15:02:14;;;;;;;;;;;;;;;20.18;45.59;94412.34;10504250;28;1935;-51
2022/11/16 15:07:14;;;;;;;;;;;;;;;20.24;45.19;94411.16;10507965;28;1935;-49
2022/11/16 15:17:38;;;;;;;;;;;;;;;20.32;45.13;94407.78;10508196;28;1914;-51
2022/11/16 15:22:38;;;;;;;;;;;;;;;20.36;44.87;94407.97;10509701;28;1926;-49
2022/11/16 15:27:39;;;;;;;;;;;;;;;20.37;44.91;94402.41;10510820;28;2007;-49
2022/11/16 15:32:41;;;;;;;;;;;;;;;20.41;44.77;94398.06;10513219;28;1888;-50
2022/11/16 15:37:42;;;;;;;;;;;;;;;20.43;44.70;94379.34;10510389;28;2101;-55
2022/11/16 15:42:45;;;;;;;;;;;;;;;20.45;44.68;94382.44;10507683;28;1936;-53
2022/11/16 15:47:48;;;;;;;;;;;;;;;20.46;43.44;94389.28;10507871;28;2078;-52
2022/11/16 15:52:53;;;;;;;;;;;;;;;20.42;44.36;94390.97;10517161;28;2002;-51
2022/11/16 15:57:58;;;;;;;;;;;;;;;20.42;43.47;94398.84;10519151;28;1968;-48
2022/11/16 16:03:02;;;;;;;;;;;;;;;20.43;43.50;94388.00;10516316;28;2001;-51
2022/11/16 16:08:04;;;;;;;;;;;;;;;20.46;43.06;94384.78;10508257;28;2012;-53
2022/11/16 16:13:19;;;;;;;;;;;;;;;20.46;42.93;94382.16;10513472;28;2122;-51
2022/11/16 16:18:39;;;;;;;;;;;;;;;20.50;43.27;94388.38;10506551;28;1939;-51
2022/11/16 16:23:46;;;;;;;;;;;;;;;20.54;43.11;94380.63;10510809;28;1936;-50
2022/11/16 16:28:50;;;;;;;;;;;;;;;20.54;43.23;94380.63;10511124;28;1983;-53
2022/11/16 16:33:50;;;;;;;;;;;;;;;20.56;42.99;94383.72;10510794;28;1924;-52
2022/11/16 16:38:51;;;;;;;;;;;;;;;20.58;43.23;94381.56;10509628;28;1943;-54
2022/11/16 16:43:52;;;;;;;;;;;;;;;20.59;43.26;94386.50;10504783;28;1955;-50
2022/11/16 16:48:54;;;;;;;;;;;;;;;20.61;43.30;94379.09;10511760;28;1991;-50
2022/11/16 16:53:54;;;;;;;;;;;;;;;20.64;43.57;94380.34;10506276;28;2144;-51
2022/11/16 16:58:55;;;;;;;;;;;;;;;20.65;42.63;94387.16;10520615;28;2089;-49
2022/11/16 17:03:55;;;;;;;;;;;;;;;20.65;42.98;94376.63;10524174;28;2054;-51
2022/11/16 17:08:55;;;;;;;;;;;;;;;20.63;43.60;94373.53;10525178;28;2073;-48
2022/11/16 17:13:56;;;;;;;;;;;;;;;20.71;43.43;94384.06;10506929;28;2173;-53
2022/11/16 17:18:56;;;;;;;;;;;;;;;20.81;43.61;94372.47;10508464;28;1906;-53
2022/11/16 17:23:57;;;;;;;;;;;;;;;20.87;43.57;94373.88;10518509;28;1924;-51
2022/11/16 17:28:57;;;;;;;;;;;;;;;20.90;43.35;94378.53;10513181;28;2172;-51
2022/11/16 17:33:57;;;;;;;;;;;;;;;20.91;43.68;94372.97;10514575;28;1975;-53
2022/11/16 17:38:57;;;;;;;;;;;;;;;20.90;43.40;94360.88;10518449;28;2047;-47
2022/11/16 17:44:02;;;;;;;;;;;;;;;20.92;43.65;94358.69;10520994;28;1931;-47
2022/11/16 17:49:02;;;;;;;;;;;;;;;20.92;43.55;94345.53;10526456;28;1903;-48
2022/11/16 17:54:03;;;;;;;;;;;;;;;20.91;43.51;94344.00;10514360;28;1924;-50
2022/11/16 17:59:03;;;;;;;;;;;;;;;20.94;43.14;94348.63;10520674;28;1905;-49
2022/11/16 18:04:03;;;;;;;;;;;;;;;20.93;43.28;94352.34;10513988;28;1963;-49
2022/11/16 18:09:04;;;;;;;;;;;;;;;20.96;43.19;94356.22;10512698;28;1951;-51
2022/11/16 18:14:04;;;;;;;;;;;;;;;20.97;43.28;94342.75;10508062;28;2062;-48
2022/11/16 18:19:04;;;;;;;;;;;;;;;21.02;43.52;94339.19;10510276;28;1910;-47
2022/11/16 18:24:05;;;;;;;;;;;;;;;21.00;43.62;94336.84;10518654;28;1915;-46
2022/11/16 18:29:07;;;;;;;;;;;;;;;21.00;43.55;94334.22;10513374;28;1968;-49
2022/11/16 18:34:13;;;;;;;;;;;;;;;21.02;43.45;94318.91;10506561;28;1951;-49
2022/11/16 18:39:13;;;;;;;;;;;;;;;21.00;43.19;94305.25;10499072;28;1985;-52
2022/11/16 18:44:13;;;;;;;;;;;;;;;21.01;43.18;94309.44;10507926;28;2074;-49
2022/11/16 18:49:14;;;;;;;;;;;;;;;20.98;43.21;94291.59;10514358;28;1962;-48
2022/11/16 18:54:14;;;;;;;;;;;;;;;20.98;43.43;94294.25;10512864;28;1939;-50
2022/11/16 18:59:14;;;;;;;;;;;;;;;20.95;43.46;94281.69;10521612;28;1976;-50
2022/11/16 19:04:15;;;;;;;;;;;;;;;20.93;43.74;94291.78;10514093;28;1935;-50
2022/11/16 19:09:15;;;;;;;;;;;;;;;20.88;43.74;94286.66;10516959;28;1998;-50
2022/11/16 19:14:15;;;;;;;;;;;;;;;20.85;43.78;94281.25;10515006;28;2040;-52
2022/11/16 19:19:15;;;;;;;;;;;;;;;20.83;43.94;94276.28;10519339;28;1915;-52
2022/11/16 19:24:16;;;;;;;;;;;;;;;20.82;43.93;94271.31;10517308;28;2042;-47
2022/11/16 19:29:16;;;;;;;;;;;;;;;20.79;43.98;94266.69;10517333;28;1924;-51
2022/11/16 19:34:16;;;;;;;;;;;;;;;20.80;43.94;94252.41;10512719;28;2021;-51
2022/11/16 19:39:16;;;;;;;;;;;;;;;20.84;43.87;94250.69;10522911;28;1975;-48
2022/11/16 19:44:17;;;;;;;;;;;;;;;20.77;43.84;94237.25;10495516;28;1956;-49
2022/11/16 19:49:18;;;;;;;;;;;;;;;20.69;44.09;94235.38;10505611;28;1889;-46
2022/11/16 19:54:18;;;;;;;;;;;;;;;20.70;44.51;94232.44;10509796;28;1920;-50
2022/11/16 19:59:18;;;;;;;;;;;;;;;20.67;45.68;94230.41;10502468;28;2154;-47
2022/11/16 20:04:19;;;;;;;;;;;;;;;20.64;46.04;94223.16;10502696;28;1962;-49
2022/11/16 20:09:23;;;;;;;;;;;;;;;20.60;46.25;94222.22;10502845;28;1975;-49
2022/11/16 20:14:23;;;;;;;;;;;;;;;20.63;45.75;94224.22;10507117;28;1939;-51
2022/11/16 20:19:23;;;;;;;;;;;;;;;20.59;45.60;94225.91;10514335;28;1930;-50
2022/11/16 20:24:24;;;;;;;;;;;;;;;20.50;45.72;94222.53;10507481;28;1924;-50
2022/11/16 20:29:24;;;;;;;;;;;;;;;20.47;45.56;94231.03;10511163;28;2054;-48
2022/11/16 20:34:24;;;;;;;;;;;;;;;20.46;45.53;94234.75;10519069;28;1896;-51
2022/11/16 20:39:25;;;;;;;;;;;;;;;20.43;45.45;94222.19;10514161;28;2009;-51
2022/11/16 20:44:25;;;;;;;;;;;;;;;20.37;45.84;94215.53;10519350;28;1919;-50
2022/11/16 20:49:25;;;;;;;;;;;;;;;20.32;46.09;94215.69;10529960;28;1963;-49
2022/11/16 20:54:28;;;;;;;;;;;;;;;20.36;46.14;94224.50;10519196;28;1944;-47
2022/11/16 20:59:28;;;;;;;;;;;;;;;20.28;46.08;94212.91;10511756;28;1959;-48
2022/11/16 21:04:29;;;;;;;;;;;;;;;20.28;45.96;94210.28;10515467;28;1908;-51
2022/11/16 21:10:16;;;;;;;;;;;;;;;20.24;46.22;94217.22;10515743;28;2018;-51
2022/11/16 21:14:49;;;;;;;;;;;;;;;20.24;46.14;94214.59;10522581;28;1952;-50
2022/11/16 21:19:50;;;;;;;;;;;;;;;20.25;45.99;94220.66;10504655;28;2217;-52
2022/11/16 21:24:50;;;;;;;;;;;;;;;20.19;46.21;94222.66;10507632;28;2003;-47
2022/11/16 21:29:51;;;;;;;;;;;;;;;20.18;45.98;94238.69;10515138;28;1944;-47
2022/11/16 21:34:51;;;;;;;;;;;;;;;20.17;46.18;94245.06;10508148;28;2101;-47
2022/11/16 21:39:51;;;;;;;;;;;;;;;20.13;46.12;94233.59;10509494;28;1989;-51
2022/11/16 21:44:51;;;;;;;;;;;;;;;20.13;45.61;94221.19;10505416;28;1943;-53
2022/11/16 21:49:52;;;;;;;;;;;;;;;20.12;46.01;94221.50;10512164;28;1967;-49
2022/11/16 21:54:58;;;;;;;;;;;;;;;20.07;46.07;94204.00;10514789;28;2022;-49
2022/11/16 22:00:00;;;;;;;;;;;;;;;20.06;45.88;94189.31;10505825;28;2130;-53
2022/11/16 22:10:20;;;;;;;;;;;;;;;20.01;45.73;94191.34;10509717;28;1919;-51
2022/11/16 22:15:20;;;;;;;;;;;;;;;19.95;45.98;94180.16;10512697;28;1908;-51
2022/11/16 22:20:20;;;;;;;;;;;;;;;19.96;45.58;94186.19;10512853;28;2030;-50
2022/11/16 22:25:21;;;;;;;;;;;;;;;19.96;45.72;94192.25;10518582;28;1920;-48
2022/11/16 22:30:21;;;;;;;;;;;;;;;19.95;45.44;94192.53;10515214;28;2182;-49
2022/11/16 22:35:22;;;;;;;;;;;;;;;19.90;45.50;94190.06;10520158;28;2030;-49
2022/11/16 22:40:22;;;;;;;;;;;;;;;19.89;45.63;94181.38;10518798;28;1975;-49
2022/11/16 22:45:23;;;;;;;;;;;;;;;19.88;45.33;94169.34;10516564;28;2006;-50
2022/11/16 22:50:24;;;;;;;;;;;;;;;19.84;45.54;94163.16;10507561;28;1943;-51
2022/11/16 22:55:24;;;;;;;;;;;;;;;19.83;45.55;94166.06;10515485;28;1971;-49
2022/11/16 23:00:24;;;;;;;;;;;;;;;19.83;45.25;94160.81;10497533;28;1962;-53
2022/11/16 23:05:26;;;;;;;;;;;;;;;19.78;45.43;94153.84;10506820;28;1986;-50
2022/11/16 23:10:27;;;;;;;;;;;;;;;19.77;45.43;94149.66;10500753;28;1964;-49
2022/11/16 23:31:27;;;;;;;;;;;;;;;19.71;45.04;94121.19;10511398;28;2027;-49
2022/11/16 23:36:27;;;;;;;;;;;;;;;19.70;45.02;94117.03;10507323;28;2047;-52
2022/11/16 23:46:54;;;;;;;;;;;;;;;19.67;44.83;94100.00;10503146;28;1949;-50
2022/11/16 23:51:54;;;;;;;;;;;;;;;19.67;45.02;94100.00;10507296;28;2021;-51
2022/11/16 23:56:55;;;;;;;;;;;;;;;19.67;44.71;94088.72;10509286;28;1914;-49
